Time;durP1;ratioP1;P1;durP2;ratioP2;P2;SDS_P1;SDS_P2;PMS_P1;PMS_P2;Temp;Humidity;BMP_temperature;BMP_pressure;BME280_temperature;BME280_humidity;BME280_pressure;Samples;Min_cycle;Max_cycle;Signal;HPM_P1;HPM_P2
2023/10/06 00:00:54;;;;;;;0.00;0.00;;;;;;;11.68;76.39;102035.63;15558390;28;20061;-53
2023/10/06 00:08:32;;;;;;;0.08;0.08;;;;;;;11.86;76.17;102040.66;15549196;28;20052;-54
2023/10/06 00:16:08;;;;;;;0.00;0.00;;;;;;;12.04;76.18;102042.97;15554107;28;20048;-52
2023/10/06 00:23:43;;;;;;;0.00;0.00;;;;;;;12.16;76.01;102028.00;15548129;28;20095;-55
2023/10/06 00:31:18;;;;;;;0.00;0.00;;;;;;;12.33;76.38;102022.38;15547581;28;20534;-54
2023/10/06 00:38:51;;;;;;;0.00;0.00;;;;;;;12.58;76.02;102020.16;15530462;28;20054;-52
2023/10/06 00:46:27;;;;;;;0.00;0.00;;;;;;;12.81;76.03;102019.97;15545982;28;20376;-57
2023/10/06 00:54:01;;;;;;;0.73;0.73;;;;;;;12.43;78.49;102028.28;15547147;28;20046;-51
2023/10/06 01:01:35;;;;;;;0.00;0.00;;;;;;;12.91;77.64;102029.38;15545747;28;20133;-55
2023/10/06 01:09:14;;;;;;;0.10;0.10;;;;;;;12.88;77.54;102023.56;15549080;28;20144;-50
2023/10/06 01:16:51;;;;;;;1.00;1.00;;;;;;;12.90;78.27;102025.00;15547541;28;20534;-54
2023/10/06 01:24:26;;;;;;;0.10;0.10;;;;;;;12.81;80.36;102009.19;15545380;28;20205;-53
2023/10/06 01:32:04;;;;;;;0.35;0.35;;;;;;;12.76;81.08;102002.50;15545669;28;20351;-54
2023/10/06 01:39:40;;;;;;;2.28;1.35;;;;;;;12.91;81.36;101996.19;15549530;28;20046;-55
2023/10/06 01:47:18;;;;;;;0.80;0.63;;;;;;;13.47;79.69;102005.13;15562364;28;20050;-51
2023/10/06 01:54:54;;;;;;;1.85;1.30;;;;;;;13.15;81.50;102016.50;15567319;28;20038;-53
2023/10/06 02:02:29;;;;;;;0.20;0.20;;;;;;;13.81;79.51;102014.28;15554251;28;20041;-51
2023/10/06 02:10:04;;;;;;;1.48;0.77;;;;;;;13.74;79.57;102014.22;15563705;28;20053;-53
2023/10/06 02:17:42;;;;;;;0.43;0.43;;;;;;;13.89;78.66;102013.25;15542205;28;20045;-56
2023/10/06 02:25:16;;;;;;;0.52;0.32;;;;;;;14.04;78.61;102011.25;15548319;28;20057;-54
2023/10/06 02:32:51;;;;;;;4.15;1.17;;;;;;;14.00;78.91;102012.69;15568217;28;20100;-56
2023/10/06 02:40:36;;;;;;;0.40;0.22;;;;;;;13.18;82.37;102019.66;15552399;28;20092;-55
2023/10/06 02:48:16;;;;;;;3.45;0.85;;;;;;;13.91;80.30;102012.03;15558320;28;20498;-55
2023/10/06 02:55:55;;;;;;;1.15;0.70;;;;;;;13.94;79.79;102006.22;15550912;28;20065;-53
2023/10/06 03:03:33;;;;;;;2.47;1.30;;;;;;;14.41;78.26;101992.84;15562176;28;20045;-54
2023/10/06 03:11:23;;;;;;;0.05;0.05;;;;;;;14.28;77.66;101988.25;15553707;28;20418;-54
2023/10/06 03:18:58;;;;;;;0.00;0.00;;;;;;;14.53;77.49;101997.47;15552401;28;20061;-46
2023/10/06 03:26:35;;;;;;;0.50;0.35;;;;;;;14.46;77.26;101982.28;15556104;28;20038;-47
2023/10/06 03:34:15;;;;;;;1.33;1.23;;;;;;;14.32;77.79;101975.19;15555618;28;20061;-50
2023/10/06 03:41:53;;;;;;;1.90;0.98;;;;;;;14.32;77.19;101976.03;15550839;28;20165;-46
2023/10/06 03:49:27;;;;;;;1.52;0.95;;;;;;;14.28;77.20;101986.41;15549012;28;20038;-48
2023/10/06 03:57:01;;;;;;;0.35;0.35;;;;;;;14.14;78.34;101981.16;15553222;28;20520;-46
2023/10/06 04:04:40;;;;;;;0.43;0.43;;;;;;;14.13;77.74;101988.44;15573676;28;20097;-49
2023/10/06 04:12:14;;;;;;;;;;;;;;;14.06;77.35;101984.88;15549411;28;20042;-51
2023/10/06 04:19:48;;;;;;;1.00;0.90;;;;;;;14.10;77.01;101979.91;15548313;28;20023;-47
2023/10/06 04:27:23;;;;;;;1.30;1.20;;;;;;;13.91;76.80;101974.22;15548473;28;20034;-45
2023/10/06 04:34:57;;;;;;;0.10;0.10;;;;;;;13.95;76.56;101982.78;15551990;28;20124;-49
2023/10/06 04:42:31;;;;;;;0.35;0.35;;;;;;;13.77;76.40;101988.72;15546211;28;20038;-55
2023/10/06 04:50:09;;;;;;;2.30;1.48;;;;;;;13.84;76.79;101994.13;15547269;28;20057;-50
2023/10/06 04:57:44;;;;;;;0.20;0.20;;;;;;;13.92;76.84;101997.47;15551933;28;20099;-53
2023/10/06 05:05:19;;;;;;;0.05;0.05;;;;;;;13.58;77.22;101979.50;15540206;28;20045;-56
2023/10/06 05:12:54;;;;;;;0.77;0.77;;;;;;;13.76;77.07;101974.38;15559082;28;20100;-52
2023/10/06 05:20:29;;;;;;;1.10;1.00;;;;;;;13.72;76.89;101980.38;15557267;28;20046;-50
2023/10/06 05:28:05;;;;;;;1.02;1.02;;;;;;;13.75;76.51;101983.50;15558462;28;20485;-54
2023/10/06 05:35:39;;;;;;;0.00;0.00;;;;;;;13.36;77.58;101978.72;15557931;28;20069;-52
2023/10/06 05:43:16;;;;;;;1.35;0.80;;;;;;;13.28;79.05;101976.19;15556143;28;20406;-56
2023/10/06 05:50:52;;;;;;;0.73;0.73;;;;;;;13.48;78.48;101987.13;15556405;28;20461;-56
2023/10/06 05:58:29;;;;;;;1.27;1.20;;;;;;;13.49;78.66;101986.06;15539413;28;20108;-56
2023/10/06 06:06:09;;;;;;;3.80;1.83;;;;;;;13.35;79.52;101992.44;15557795;28;20120;-56
2023/10/06 06:13:44;;;;;;;1.27;1.23;;;;;;;13.81;78.29;101992.69;15556465;28;20045;-58
2023/10/06 06:21:24;;;;;;;5.10;0.88;;;;;;;13.81;77.88;101971.09;15555654;28;20038;-57
2023/10/06 06:29:02;;;;;;;0.40;0.40;;;;;;;13.59;79.01;101972.22;15553812;28;20375;-57
2023/10/06 06:36:36;;;;;;;1.40;1.02;;;;;;;14.00;78.24;101974.91;15536896;28;20496;-54
2023/10/06 06:44:10;;;;;;;;;;;;;;;14.33;76.95;101983.09;15555150;28;20537;-55
2023/10/06 06:51:44;;;;;;;1.55;0.43;;;;;;;14.36;76.54;101987.22;15553607;28;19936;-58
2023/10/06 06:59:19;;;;;;;0.15;0.15;;;;;;;13.86;78.48;101973.19;15553214;28;20084;-56
2023/10/06 07:06:52;;;;;;;0.93;0.93;;;;;;;14.54;76.82;101984.78;15552773;28;20041;-54
2023/10/06 07:14:27;;;;;;;0.63;0.57;;;;;;;14.12;78.40;101989.44;15555827;28;20439;-54
2023/10/06 07:22:01;;;;;;;0.65;0.65;;;;;;;14.25;77.11;101967.88;15554669;28;20503;-53
2023/10/06 07:29:38;;;;;;;0.47;0.47;;;;;;;14.54;76.48;101965.88;15549384;28;20077;-54
2023/10/06 07:37:11;;;;;;;0.85;0.85;;;;;;;14.47;76.65;101954.22;15549360;28;20128;-54
2023/10/06 07:44:47;;;;;;;3.00;1.23;;;;;;;14.93;75.63;101964.25;15549087;28;20468;-57
2023/10/06 07:52:21;;;;;;;0.55;0.35;;;;;;;15.14;75.09;101947.75;15549440;28;20056;-55
2023/10/06 07:59:57;;;;;;;0.05;0.05;;;;;;;15.08;75.99;101956.72;15549049;28;20077;-57
2023/10/06 08:07:30;;;;;;;0.63;0.57;;;;;;;15.05;75.22;101949.03;15549080;28;20046;-56
2023/10/06 08:15:09;;;;;;;0.65;0.43;;;;;;;15.47;74.00;101939.56;15546766;28;20053;-56
2023/10/06 08:22:46;;;;;;;0.00;0.00;;;;;;;15.72;74.80;101928.91;15547795;28;20168;-57
2023/10/06 08:30:21;;;;;;;0.00;0.00;;;;;;;15.85;74.13;101927.16;15546676;28;20064;-51
2023/10/06 08:37:56;;;;;;;0.25;0.25;;;;;;;15.92;73.61;101914.44;15546195;28;20046;-55
2023/10/06 08:45:30;;;;;;;0.28;0.28;;;;;;;15.97;72.93;101915.44;15546073;28;20487;-51
2023/10/06 08:53:05;;;;;;;0.17;0.17;;;;;;;16.25;71.74;101909.63;15546711;28;20046;-54
2023/10/06 09:00:43;;;;;;;0.50;0.50;;;;;;;16.81;68.62;101899.81;15546162;28;20069;-55
2023/10/06 09:08:18;;;;;;;0.00;0.00;;;;;;;16.27;68.06;101898.56;15543881;28;20049;-49
2023/10/06 09:16:02;;;;;;;0.17;0.10;;;;;;;16.40;67.45;101892.22;15602707;23;20041;-48
2023/10/06 09:23:39;;;;;;;0.40;0.40;;;;;;;16.40;67.63;101884.09;15665546;28;20041;-49
2023/10/06 09:31:14;;;;;;;0.30;0.30;;;;;;;16.35;68.27;101876.63;15609527;28;20033;-46
2023/10/06 09:38:48;;;;;;;0.10;0.10;;;;;;;17.34;66.12;101880.22;15610842;28;20038;-51
2023/10/06 09:46:26;;;;;;;1.65;0.32;;;;;;;17.47;63.73;101868.41;15611840;28;20053;-51
2023/10/06 09:53:59;;;;;;;0.00;0.00;;;;;;;17.93;60.24;101847.94;15612304;28;20072;-48
2023/10/06 10:01:36;;;;;;;0.22;0.22;;;;;;;18.90;58.84;101837.53;15604849;28;20053;-47
2023/10/06 10:09:15;;;;;;;0.00;0.00;;;;;;;18.78;56.22;101818.47;15621225;28;20056;-54
2023/10/06 10:17:13;;;;;;;0.15;0.10;;;;;;;17.77;59.08;101811.41;15621464;28;20076;-50
2023/10/06 10:24:47;;;;;;;0.05;0.05;;;;;;;17.57;60.15;101815.19;15622837;28;20087;-50
2023/10/06 10:32:24;;;;;;;0.00;0.00;;;;;;;17.71;60.98;101817.72;15621466;28;20076;-49
2023/10/06 10:39:58;;;;;;;0.32;0.32;;;;;;;17.90;58.66;101802.22;15615490;28;20060;-47
2023/10/06 10:47:33;;;;;;;0.00;0.00;;;;;;;18.12;55.83;101789.75;15618550;28;20044;-48
2023/10/06 10:55:07;;;;;;;0.20;0.20;;;;;;;18.15;57.00;101775.69;15619156;28;20391;-48
2023/10/06 11:02:44;;;;;;;0.00;0.00;;;;;;;17.52;56.38;101763.47;15611294;28;20486;-48
2023/10/06 11:10:19;;;;;;;0.70;0.55;;;;;;;17.68;57.27;101781.03;15617908;28;20038;-48
2023/10/06 11:17:58;;;;;;;0.00;0.00;;;;;;;17.90;56.74;101765.00;15617644;28;20522;-50
2023/10/06 11:25:35;;;;;;;0.30;0.25;;;;;;;17.85;58.15;101782.00;15617290;28;20117;-49
2023/10/06 11:33:12;;;;;;;1.20;0.63;;;;;;;18.52;55.44;101751.81;15615888;28;20577;-48
2023/10/06 11:40:46;;;;;;;0.00;0.00;;;;;;;18.56;55.77;101753.00;15614101;28;20087;-48
2023/10/06 11:48:25;;;;;;;0.20;0.20;;;;;;;18.96;54.76;101725.00;15605985;28;20516;-48
2023/10/06 11:56:09;;;;;;;0.00;0.00;;;;;;;18.65;55.11;101714.53;15614067;28;20065;-48
2023/10/06 12:03:44;;;;;;;0.00;0.00;;;;;;;19.04;53.45;101686.53;15610207;28;20469;-48
2023/10/06 12:11:18;;;;;;;1.20;0.80;;;;;;;18.61;52.88;101655.22;15604903;28;20389;-48
2023/10/06 12:18:54;;;;;;;0.20;0.20;;;;;;;19.04;53.01;101643.00;15613266;28;20068;-48
2023/10/06 12:26:28;;;;;;;0.00;0.00;;;;;;;19.07;53.10;101638.94;15612617;28;20053;-49
2023/10/06 12:34:03;;;;;;;0.05;0.05;;;;;;;18.79;52.48;101637.06;15614381;28;20063;-48
2023/10/06 12:41:41;;;;;;;0.15;0.15;;;;;;;18.86;53.92;101621.44;15613645;28;20132;-49
2023/10/06 12:49:18;;;;;;;0.52;0.43;;;;;;;19.08;52.00;101611.50;15595929;28;20057;-48
2023/10/06 12:56:51;;;;;;;2.35;0.47;;;;;;;19.17;52.37;101606.47;15605069;28;20053;-50
2023/10/06 13:04:26;;;;;;;0.50;0.50;;;;;;;18.83;52.33;101590.09;15613964;28;20037;-45
2023/10/06 13:12:00;;;;;;;0.17;0.17;;;;;;;18.38;55.08;101600.09;15612823;28;20046;-51
2023/10/06 13:19:34;;;;;;;0.05;0.05;;;;;;;18.17;55.36;101596.09;15611551;28;20040;-52
2023/10/06 13:27:10;;;;;;;1.33;1.23;;;;;;;18.26;55.96;101600.09;15610552;28;20490;-56
2023/10/06 13:34:45;;;;;;;0.30;0.30;;;;;;;17.94;57.29;101596.97;15609517;28;20041;-50
2023/10/06 13:42:22;;;;;;;0.08;0.08;;;;;;;17.35;65.82;101586.09;15621549;28;20353;-48
2023/10/06 13:49:56;;;;;;;0.00;0.00;;;;;;;17.00;65.84;101581.44;15604967;28;20049;-49
2023/10/06 13:57:30;;;;;;;0.00;0.00;;;;;;;16.85;66.64;101569.38;15613019;28;20552;-48
2023/10/06 14:05:06;;;;;;;0.00;0.00;;;;;;;17.05;65.18;101559.03;15621664;28;20140;-51
2023/10/06 14:12:47;;;;;;;0.22;0.22;;;;;;;16.90;66.42;101550.53;15621456;28;20038;-47
2023/10/06 14:20:27;;;;;;;0.03;0.03;;;;;;;17.12;65.51;101538.06;15620379;28;20052;-52
2023/10/06 14:28:00;;;;;;;7.15;0.55;;;;;;;17.10;67.90;101518.47;15625263;28;20048;-48
2023/10/06 14:35:53;;;;;;;0.05;0.05;;;;;;;16.95;69.56;101491.81;15623826;28;20046;-52
2023/10/06 14:51:18;;;;;;;0.10;0.10;;;;;;;17.44;66.24;101484.28;15620006;28;20045;-50
2023/10/06 14:58:53;;;;;;;0.82;0.35;;;;;;;17.18;68.21;101482.84;15611699;28;20038;-50
2023/10/06 15:06:27;;;;;;;0.00;0.00;;;;;;;16.91;68.88;101468.09;15619095;28;20041;-50
2023/10/06 15:14:00;;;;;;;9.75;0.70;;;;;;;16.94;70.40;101462.22;15619292;28;20129;-48
2023/10/06 15:21:39;;;;;;;0.38;0.38;;;;;;;17.01;68.98;101442.03;15618020;28;20133;-50
2023/10/06 15:29:13;;;;;;;0.00;0.00;;;;;;;17.05;69.00;101439.69;15617703;28;20041;-53
2023/10/06 15:36:48;;;;;;;0.00;0.00;;;;;;;17.31;68.16;101430.25;15618285;28;20041;-49
2023/10/06 15:44:21;;;;;;;15.27;1.17;;;;;;;16.99;67.90;101414.34;15617330;28;20038;-50
2023/10/06 15:51:56;;;;;;;0.00;0.00;;;;;;;16.93;68.84;101399.03;15616127;28;20041;-47
2023/10/06 15:59:30;;;;;;;1.13;0.80;;;;;;;17.17;67.58;101401.72;15609880;28;20125;-48
2023/10/06 16:07:08;;;;;;;0.00;0.00;;;;;;;17.28;67.89;101388.13;15608036;28;20052;-48
2023/10/06 16:14:41;;;;;;;0.00;0.00;;;;;;;17.04;67.58;101378.38;15623895;28;20065;-50
2023/10/06 16:22:16;;;;;;;0.00;0.00;;;;;;;16.92;68.38;101388.41;15603056;28;20071;-47
2023/10/06 16:29:49;;;;;;;1.85;0.60;;;;;;;17.12;67.80;101386.16;15575667;28;20073;-49
2023/10/06 16:37:24;;;;;;;;;;;;;;;16.80;66.66;101378.38;15612756;28;20044;-47
2023/10/06 16:44:57;;;;;;;0.00;0.00;;;;;;;16.69;65.44;101371.03;15612286;28;19957;-47
2023/10/06 16:52:31;;;;;;;0.43;0.30;;;;;;;16.89;64.03;101384.28;15607281;28;20099;-46
2023/10/06 17:00:09;;;;;;;0.00;0.00;;;;;;;17.13;63.52;101373.41;15604098;28;20072;-48
2023/10/06 17:07:44;;;;;;;0.00;0.00;;;;;;;17.07;62.62;101365.16;15612189;28;20100;-52
2023/10/06 17:15:18;;;;;;;0.00;0.00;;;;;;;16.99;61.85;101349.25;15612255;28;20132;-49
2023/10/06 17:22:53;;;;;;;0.00;0.00;;;;;;;17.29;60.28;101354.50;15612036;28;20049;-48
2023/10/06 17:30:26;;;;;;;0.10;0.10;;;;;;;17.40;60.04;101341.97;15612239;28;20102;-49
2023/10/06 17:38:00;;;;;;;;;;;;;;;17.25;60.54;101328.06;15612370;28;20104;-50
2023/10/06 17:45:37;;;;;;;0.00;0.00;;;;;;;17.57;58.71;101314.88;15611889;28;19921;-52
2023/10/06 17:53:12;;;;;;;0.00;0.00;;;;;;;17.33;59.29;101319.56;15612070;28;20148;-49
2023/10/06 18:00:47;;;;;;;0.63;0.63;;;;;;;16.87;59.47;101286.06;15602094;28;20092;-48
2023/10/06 18:08:22;;;;;;;0.00;0.00;;;;;;;17.11;59.10;101318.56;15611677;28;20064;-51
2023/10/06 18:15:55;;;;;;;0.47;0.30;;;;;;;16.96;59.13;101306.31;15610900;28;20049;-49
2023/10/06 18:23:30;;;;;;;;;;;;;;;16.82;59.39;101300.34;15612777;28;20103;-50
2023/10/06 18:31:03;;;;;;;0.95;0.75;;;;;;;17.12;58.55;101296.63;15621343;28;19921;-50
2023/10/06 18:38:37;;;;;;;;;;;;;;;16.71;59.03;101293.03;15618355;28;20037;-49
2023/10/06 18:46:10;;;;;;;0.10;0.10;;;;;;;17.26;57.17;101281.72;15620297;28;19929;-50
2023/10/06 18:53:45;;;;;;;0.00;0.00;;;;;;;16.82;57.95;101275.94;15620446;28;20132;-49
2023/10/06 19:01:18;;;;;;;0.35;0.35;;;;;;;16.93;57.94;101278.88;15611695;28;20045;-50
2023/10/06 19:08:54;;;;;;;0.15;0.08;;;;;;;16.88;57.66;101278.75;15619276;28;20132;-52
2023/10/06 19:16:27;;;;;;;0.00;0.00;;;;;;;16.63;58.05;101290.66;15619265;28;20435;-51
2023/10/06 19:24:03;;;;;;;;;;;;;;;16.52;58.04;101277.97;15618837;28;20037;-51
2023/10/06 19:31:38;;;;;;;0.05;0.00;;;;;;;16.89;57.60;101283.94;15618216;28;20336;-52
2023/10/06 19:39:15;;;;;;;1.08;0.98;;;;;;;16.92;57.94;101267.19;15616407;28;20083;-49
2023/10/06 19:46:50;;;;;;;0.13;0.10;;;;;;;17.10;56.61;101268.91;15615882;28;20040;-52
2023/10/06 19:54:25;;;;;;;0.10;0.10;;;;;;;16.85;57.22;101250.25;15608683;28;20049;-49
2023/10/06 20:01:58;;;;;;;0.03;0.03;;;;;;;16.98;56.66;101266.25;15607996;28;20069;-50
2023/10/06 20:09:33;;;;;;;0.00;0.00;;;;;;;16.98;57.09;101260.81;15615266;28;20052;-50
2023/10/06 20:17:09;;;;;;;0.00;0.00;;;;;;;17.12;56.29;101255.13;15615475;28;20091;-48
2023/10/06 20:24:43;;;;;;;0.20;0.20;;;;;;;17.12;55.93;101242.38;15615251;28;20038;-49
2023/10/06 20:32:16;;;;;;;0.28;0.28;;;;;;;16.86;56.54;101242.94;15615426;28;20486;-52
2023/10/06 20:39:51;;;;;;;;;;;;;;;17.09;56.35;101249.09;15614590;28;20171;-51
2023/10/06 20:47:25;;;;;;;0.40;0.40;;;;;;;17.21;56.05;101249.06;15612808;28;19921;-49
2023/10/06 20:55:00;;;;;;;0.00;0.00;;;;;;;17.05;56.63;101261.50;15613708;28;20038;-49
2023/10/06 21:02:33;;;;;;;2.03;1.45;;;;;;;17.31;56.50;101254.69;15604691;28;20076;-53
2023/10/06 21:10:08;;;;;;;0.17;0.17;;;;;;;17.01;57.26;101249.47;15612794;28;20409;-50
2023/10/06 21:17:42;;;;;;;0.00;0.00;;;;;;;17.21;57.03;101248.25;15622996;23;20397;-54
2023/10/06 21:25:17;;;;;;;0.10;0.10;;;;;;;17.01;57.50;101243.22;15597300;28;20041;-53
2023/10/06 21:32:50;;;;;;;0.10;0.10;;;;;;;17.06;57.54;101213.50;15546021;28;20036;-51
2023/10/06 21:40:27;;;;;;;4.07;0.75;;;;;;;17.11;57.99;101216.31;15550884;28;20064;-53
2023/10/06 21:48:00;;;;;;;0.47;0.25;;;;;;;16.90;59.09;101220.53;15550915;28;20502;-51
2023/10/06 21:55:35;;;;;;;0.30;0.30;;;;;;;16.68;59.91;101216.75;15552133;28;20707;-50
2023/10/06 22:03:10;;;;;;;0.00;0.00;;;;;;;16.79;59.05;101219.50;15554427;28;20045;-51
2023/10/06 22:10:44;;;;;;;0.00;0.00;;;;;;;16.86;59.25;101216.63;15562169;28;20053;-51
2023/10/06 22:18:18;;;;;;;0.00;0.00;;;;;;;16.80;59.45;101226.56;15562465;28;20046;-51
2023/10/06 22:25:52;;;;;;;0.63;0.32;;;;;;;16.95;59.15;101214.38;15559560;28;20037;-51
2023/10/06 22:33:26;;;;;;;0.43;0.43;;;;;;;16.98;59.63;101209.28;15552584;28;20403;-51
2023/10/06 22:41:00;;;;;;;0.10;0.10;;;;;;;16.48;60.18;101168.38;15560412;28;20419;-52
2023/10/06 22:48:34;;;;;;;0.03;0.03;;;;;;;16.62;60.30;101186.03;15561048;28;20469;-54
2023/10/06 22:56:09;;;;;;;0.20;0.20;;;;;;;16.80;60.53;101179.66;15560535;28;20380;-50
2023/10/06 23:03:42;;;;;;;0.10;0.10;;;;;;;16.48;61.28;101171.09;15559124;28;20053;-51
2023/10/06 23:11:17;;;;;;;0.00;0.00;;;;;;;16.59;61.70;101178.38;15558192;28;20041;-50
2023/10/06 23:18:55;;;;;;;2.72;0.85;;;;;;;16.86;60.74;101156.16;15558611;28;20060;-51
2023/10/06 23:26:30;;;;;;;0.63;0.52;;;;;;;16.49;62.09;101161.91;15550335;28;20042;-49
2023/10/06 23:34:04;;;;;;;0.00;0.00;;;;;;;16.73;62.09;101158.09;15557434;28;20042;-51
2023/10/06 23:41:38;;;;;;;0.40;0.40;;;;;;;16.85;61.57;101130.94;15558008;28;20501;-50
2023/10/06 23:49:12;;;;;;;0.08;0.08;;;;;;;16.63;62.11;101125.31;15556877;28;20046;-51
2023/10/06 23:56:47;;;;;;;0.05;0.03;;;;;;;16.79;61.69;101121.06;15556037;28;20577;-52
